sensor_id;sensor_type;location;lat;lon;timestamp;temperature;humidity
2439;DHT22;14509;47.992;7.848;2023-04-01T01:01:52;12.50;59.00
2439;DHT22;14509;47.992;7.848;2023-04-01T01:03:55;12.50;59.00
2439;DHT22;14509;47.992;7.848;2023-04-01T01:06:23;12.50;59.00
2439;DHT22;14509;47.992;7.848;2023-04-01T01:08:35;12.50;59.10
2439;DHT22;14509;47.992;7.848;2023-04-01T01:10:42;12.60;59.10
2439;DHT22;14509;47.992;7.848;2023-04-01T01:12:51;12.60;59.10
2439;DHT22;14509;47.992;7.848;2023-04-01T01:15:04;12.50;59.60
2439;DHT22;14509;47.992;7.848;2023-04-01T01:17:14;12.50;59.90
2439;DHT22;14509;47.992;7.848;2023-04-01T01:19:35;12.50;60.60
2439;DHT22;14509;47.992;7.848;2023-04-01T01:22:10;12.40;60.80
2439;DHT22;14509;47.992;7.848;2023-04-01T01:24:43;12.40;60.30
2439;DHT22;14509;47.992;7.848;2023-04-01T01:27:01;12.50;60.70
2439;DHT22;14509;47.992;7.848;2023-04-01T01:29:10;12.40;60.30
2439;DHT22;14509;47.992;7.848;2023-04-01T01:31:20;12.40;59.80
2439;DHT22;14509;47.992;7.848;2023-04-01T01:33:43;12.30;60.30
2439;DHT22;14509;47.992;7.848;2023-04-01T01:35:51;12.30;60.70
2439;DHT22;14509;47.992;7.848;2023-04-01T01:37:58;12.30;60.30
2439;DHT22;14509;47.992;7.848;2023-04-01T01:40:04;12.40;60.20
2439;DHT22;14509;47.992;7.848;2023-04-01T01:42:11;12.30;59.90
2439;DHT22;14509;47.992;7.848;2023-04-01T01:44:17;12.30;59.90
2439;DHT22;14509;47.992;7.848;2023-04-01T01:46:22;12.30;59.60
2439;DHT22;14509;47.992;7.848;2023-04-01T01:48:27;12.40;59.40
2439;DHT22;14509;47.992;7.848;2023-04-01T01:50:29;12.30;59.20
2439;DHT22;14509;47.992;7.848;2023-04-01T01:52:33;12.20;59.40
2439;DHT22;14509;47.992;7.848;2023-04-01T01:54:35;12.20;59.50
2439;DHT22;14509;47.992;7.848;2023-04-01T01:56:38;12.20;59.20
2439;DHT22;14509;47.992;7.848;2023-04-01T01:58:43;12.20;59.40
2439;DHT22;14509;47.992;7.848;2023-04-01T02:00:51;12.30;59.10
2439;DHT22;14509;47.992;7.848;2023-04-01T02:02:55;12.40;59.00
2439;DHT22;14509;47.992;7.848;2023-04-01T02:04:58;12.50;58.80
2439;DHT22;14509;47.992;7.848;2023-04-01T02:07:02;13.00;59.10
2439;DHT22;14509;47.992;7.848;2023-04-01T02:09:08;12.40;58.60
2439;DHT22;14509;47.992;7.848;2023-04-01T02:11:15;12.50;58.60
2439;DHT22;14509;47.992;7.848;2023-04-01T02:13:27;12.50;58.40
2439;DHT22;14509;47.992;7.848;2023-04-01T02:15:32;13.00;58.90
2439;DHT22;14509;47.992;7.848;2023-04-01T02:17:40;12.50;57.80
2439;DHT22;14509;47.992;7.848;2023-04-01T02:19:47;12.80;58.50
2439;DHT22;14509;47.992;7.848;2023-04-01T02:21:51;12.50;58.30
2439;DHT22;14509;47.992;7.848;2023-04-01T02:23:54;12.60;58.20
2439;DHT22;14509;47.992;7.848;2023-04-01T02:26:00;12.70;58.20
2439;DHT22;14509;47.992;7.848;2023-04-01T02:28:04;13.00;58.30
2439;DHT22;14509;47.992;7.848;2023-04-01T02:30:08;12.60;58.00
2439;DHT22;14509;47.992;7.848;2023-04-01T02:32:11;12.70;58.50
2439;DHT22;14509;47.992;7.848;2023-04-01T02:34:14;12.80;58.50
2439;DHT22;14509;47.992;7.848;2023-04-01T02:36:17;12.80;58.60
2439;DHT22;14509;47.992;7.848;2023-04-01T02:38:19;12.80;58.50
2439;DHT22;14509;47.992;7.848;2023-04-01T02:40:21;12.80;58.80
2439;DHT22;14509;47.992;7.848;2023-04-01T02:42:25;12.80;58.80
2439;DHT22;14509;47.992;7.848;2023-04-01T02:44:29;12.80;59.20
2439;DHT22;14509;47.992;7.848;2023-04-01T02:46:32;12.80;59.30
2439;DHT22;14509;47.992;7.848;2023-04-01T02:48:35;12.80;58.90
2439;DHT22;14509;47.992;7.848;2023-04-01T02:50:36;12.70;58.90
2439;DHT22;14509;47.992;7.848;2023-04-01T02:52:38;12.60;58.60
2439;DHT22;14509;47.992;7.848;2023-04-01T02:54:40;12.40;57.60
2439;DHT22;14509;47.992;7.848;2023-04-01T02:56:42;12.40;58.70
2439;DHT22;14509;47.992;7.848;2023-04-01T02:58:46;12.30;59.80
2439;DHT22;14509;47.992;7.848;2023-04-01T03:00:48;12.40;59.70
2439;DHT22;14509;47.992;7.848;2023-04-01T03:02:50;12.60;60.00
2439;DHT22;14509;47.992;7.848;2023-04-01T03:04:52;12.50;60.00
2439;DHT22;14509;47.992;7.848;2023-04-01T03:06:54;12.50;60.30
2439;DHT22;14509;47.992;7.848;2023-04-01T03:08:56;12.50;60.70
2439;DHT22;14509;47.992;7.848;2023-04-01T03:10:58;13.30;61.60
2439;DHT22;14509;47.992;7.848;2023-04-01T03:13:00;12.50;61.10
2439;DHT22;14509;47.992;7.848;2023-04-01T03:15:05;12.50;61.50
2439;DHT22;14509;47.992;7.848;2023-04-01T03:17:07;12.40;61.70
2439;DHT22;14509;47.992;7.848;2023-04-01T03:19:10;12.30;61.90
2439;DHT22;14509;47.992;7.848;2023-04-01T03:21:17;12.20;62.20
2439;DHT22;14509;47.992;7.848;2023-04-01T03:23:26;12.30;62.40
2439;DHT22;14509;47.992;7.848;2023-04-01T03:25:28;12.30;62.40
2439;DHT22;14509;47.992;7.848;2023-04-01T03:27:31;12.30;62.30
2439;DHT22;14509;47.992;7.848;2023-04-01T03:29:37;12.40;61.60
2439;DHT22;14509;47.992;7.848;2023-04-01T03:31:41;12.40;61.40
2439;DHT22;14509;47.992;7.848;2023-04-01T03:33:43;12.30;61.30
2439;DHT22;14509;47.992;7.848;2023-04-01T03:35:46;12.30;60.50
2439;DHT22;14509;47.992;7.848;2023-04-01T03:37:50;12.10;60.20
2439;DHT22;14509;47.992;7.848;2023-04-01T03:39:52;12.20;59.60
2439;DHT22;14509;47.992;7.848;2023-04-01T03:41:54;12.10;59.70
2439;DHT22;14509;47.992;7.848;2023-04-01T03:43:57;12.00;59.80
2439;DHT22;14509;47.992;7.848;2023-04-01T03:45:59;11.90;60.00
2439;DHT22;14509;47.992;7.848;2023-04-01T03:48:03;11.90;60.30
2439;DHT22;14509;47.992;7.848;2023-04-01T03:50:06;11.70;59.80
2439;DHT22;14509;47.992;7.848;2023-04-01T03:52:10;11.60;60.10
2439;DHT22;14509;47.992;7.848;2023-04-01T03:54:12;11.50;60.50
2439;DHT22;14509;47.992;7.848;2023-04-01T03:56:14;11.60;60.70
2439;DHT22;14509;47.992;7.848;2023-04-01T03:58:17;11.60;60.80
2439;DHT22;14509;47.992;7.848;2023-04-01T04:00:19;11.60;60.60
2439;DHT22;14509;47.992;7.848;2023-04-01T04:02:27;11.60;60.70
2439;DHT22;14509;47.992;7.848;2023-04-01T04:04:31;11.70;60.90
2439;DHT22;14509;47.992;7.848;2023-04-01T04:06:33;11.30;60.50
2439;DHT22;14509;47.992;7.848;2023-04-01T04:08:36;11.60;60.70
2439;DHT22;14509;47.992;7.848;2023-04-01T04:10:38;11.70;61.00
2439;DHT22;14509;47.992;7.848;2023-04-01T04:12:40;11.70;60.70
2439;DHT22;14509;47.992;7.848;2023-04-01T04:14:42;11.90;60.70
2439;DHT22;14509;47.992;7.848;2023-04-01T04:16:45;11.80;60.80
2439;DHT22;14509;47.992;7.848;2023-04-01T04:18:47;11.60;60.20
2439;DHT22;14509;47.992;7.848;2023-04-01T04:20:51;11.70;60.40
2439;DHT22;14509;47.992;7.848;2023-04-01T04:22:54;11.60;59.90
2439;DHT22;14509;47.992;7.848;2023-04-01T04:24:56;11.70;59.30
2439;DHT22;14509;47.992;7.848;2023-04-01T04:26:58;11.70;59.80
2439;DHT22;14509;47.992;7.848;2023-04-01T04:29:03;11.80;59.60
2439;DHT22;14509;47.992;7.848;2023-04-01T04:31:06;11.90;59.30
2439;DHT22;14509;47.992;7.848;2023-04-01T04:33:10;12.00;59.20
2439;DHT22;14509;47.992;7.848;2023-04-01T04:35:13;12.10;58.90
2439;DHT22;14509;47.992;7.848;2023-04-01T04:37:16;12.20;58.90
2439;DHT22;14509;47.992;7.848;2023-04-01T04:39:18;12.10;58.90
2439;DHT22;14509;47.992;7.848;2023-04-01T04:41:24;12.10;59.20
2439;DHT22;14509;47.992;7.848;2023-04-01T04:43:27;12.30;59.40
2439;DHT22;14509;47.992;7.848;2023-04-01T04:45:30;12.60;59.50
2439;DHT22;14509;47.992;7.848;2023-04-01T04:47:33;12.50;59.50
2439;DHT22;14509;47.992;7.848;2023-04-01T04:49:35;12.20;59.70
2439;DHT22;14509;47.992;7.848;2023-04-01T04:51:42;12.20;59.70
2439;DHT22;14509;47.992;7.848;2023-04-01T04:53:47;12.40;60.00
2439;DHT22;14509;47.992;7.848;2023-04-01T04:55:50;12.20;60.00
2439;DHT22;14509;47.992;7.848;2023-04-01T04:58:15;12.20;59.80
2439;DHT22;14509;47.992;7.848;2023-04-01T05:00:18;12.10;59.40
2439;DHT22;14509;47.992;7.848;2023-04-01T05:02:30;12.10;59.80
2439;DHT22;14509;47.992;7.848;2023-04-01T05:04:34;12.10;59.60
2439;DHT22;14509;47.992;7.848;2023-04-01T05:06:37;12.20;59.60
2439;DHT22;14509;47.992;7.848;2023-04-01T05:08:44;12.30;59.20
2439;DHT22;14509;47.992;7.848;2023-04-01T05:10:48;12.20;58.90
2439;DHT22;14509;47.992;7.848;2023-04-01T05:12:50;12.20;59.00
2439;DHT22;14509;47.992;7.848;2023-04-01T05:14:55;12.40;58.70
2439;DHT22;14509;47.992;7.848;2023-04-01T05:16:58;12.20;58.30
2439;DHT22;14509;47.992;7.848;2023-04-01T05:19:00;12.70;58.70
2439;DHT22;14509;47.992;7.848;2023-04-01T05:21:02;12.30;58.30
2439;DHT22;14509;47.992;7.848;2023-04-01T05:23:09;12.30;58.00
2439;DHT22;14509;47.992;7.848;2023-04-01T05:25:13;12.30;58.30
2439;DHT22;14509;47.992;7.848;2023-04-01T05:27:17;12.30;58.20
2439;DHT22;14509;47.992;7.848;2023-04-01T05:29:19;12.40;58.20
2439;DHT22;14509;47.992;7.848;2023-04-01T05:31:28;12.40;58.00
2439;DHT22;14509;47.992;7.848;2023-04-01T05:33:32;12.30;58.00
2439;DHT22;14509;47.992;7.848;2023-04-01T05:35:37;12.70;58.20
2439;DHT22;14509;47.992;7.848;2023-04-01T05:37:40;12.50;57.70
2439;DHT22;14509;47.992;7.848;2023-04-01T05:39:52;12.60;57.30
2439;DHT22;14509;47.992;7.848;2023-04-01T05:41:54;12.60;56.90
2439;DHT22;14509;47.992;7.848;2023-04-01T05:43:58;12.80;57.40
2439;DHT22;14509;47.992;7.848;2023-04-01T05:46:15;12.80;57.10
2439;DHT22;14509;47.992;7.848;2023-04-01T05:48:29;12.90;56.60
2439;DHT22;14509;47.992;7.848;2023-04-01T05:50:32;13.30;57.00
2439;DHT22;14509;47.992;7.848;2023-04-01T05:52:35;13.00;56.40
2439;DHT22;14509;47.992;7.848;2023-04-01T05:54:37;13.00;56.30
2439;DHT22;14509;47.992;7.848;2023-04-01T05:56:43;13.10;56.50
2439;DHT22;14509;47.992;7.848;2023-04-01T05:58:47;13.10;56.50
2439;DHT22;14509;47.992;7.848;2023-04-01T06:01:00;13.20;56.20
2439;DHT22;14509;47.992;7.848;2023-04-01T06:03:02;13.20;55.80
2439;DHT22;14509;47.992;7.848;2023-04-01T06:05:13;13.20;55.70
2439;DHT22;14509;47.992;7.848;2023-04-01T06:07:17;13.20;55.60
2439;DHT22;14509;47.992;7.848;2023-04-01T06:09:26;13.20;55.60
2439;DHT22;14509;47.992;7.848;2023-04-01T06:11:34;13.20;55.60
2439;DHT22;14509;47.992;7.848;2023-04-01T06:13:58;13.30;55.40
2439;DHT22;14509;47.992;7.848;2023-04-01T06:16:23;13.40;55.30
2439;DHT22;14509;47.992;7.848;2023-04-01T06:18:45;13.50;54.70
2439;DHT22;14509;47.992;7.848;2023-04-01T06:20:58;13.50;54.60
2439;DHT22;14509;47.992;7.848;2023-04-01T06:23:20;13.40;54.40
2439;DHT22;14509;47.992;7.848;2023-04-01T06:25:35;13.30;54.80
2439;DHT22;14509;47.992;7.848;2023-04-01T06:27:49;13.40;54.80
2439;DHT22;14509;47.992;7.848;2023-04-01T06:30:02;13.60;54.80
2439;DHT22;14509;47.992;7.848;2023-04-01T06:32:32;13.50;54.30
2439;DHT22;14509;47.992;7.848;2023-04-01T06:34:54;13.40;54.40
2439;DHT22;14509;47.992;7.848;2023-04-01T06:37:15;13.30;54.50
2439;DHT22;14509;47.992;7.848;2023-04-01T06:39:37;13.40;54.80
2439;DHT22;14509;47.992;7.848;2023-04-01T06:42:06;13.30;54.60
2439;DHT22;14509;47.992;7.848;2023-04-01T06:44:17;13.30;54.50
2439;DHT22;14509;47.992;7.848;2023-04-01T06:46:44;13.30;54.60
2439;DHT22;14509;47.992;7.848;2023-04-01T06:49:41;13.40;54.50
2439;DHT22;14509;47.992;7.848;2023-04-01T06:52:10;13.40;54.10
2439;DHT22;14509;47.992;7.848;2023-04-01T06:54:35;13.40;54.30
2439;DHT22;14509;47.992;7.848;2023-04-01T06:57:22;13.40;54.40
2439;DHT22;14509;47.992;7.848;2023-04-01T06:59:27;13.60;53.80
2439;DHT22;14509;47.992;7.848;2023-04-01T07:01:34;13.70;53.60
2439;DHT22;14509;47.992;7.848;2023-04-01T07:03:41;13.80;53.30
2439;DHT22;14509;47.992;7.848;2023-04-01T07:05:46;13.70;53.30
2439;DHT22;14509;47.992;7.848;2023-04-01T07:07:52;13.70;53.20
2439;DHT22;14509;47.992;7.848;2023-04-01T07:09:58;13.50;53.70
2439;DHT22;14509;47.992;7.848;2023-04-01T07:12:10;13.70;54.10
2439;DHT22;14509;47.992;7.848;2023-04-01T07:14:36;13.80;53.80
2439;DHT22;14509;47.992;7.848;2023-04-01T07:16:42;13.80;53.30
2439;DHT22;14509;47.992;7.848;2023-04-01T07:18:49;13.90;53.20
2439;DHT22;14509;47.992;7.848;2023-04-01T07:20:53;13.90;53.10
2439;DHT22;14509;47.992;7.848;2023-04-01T07:22:58;13.80;53.20
2439;DHT22;14509;47.992;7.848;2023-04-01T07:25:19;13.90;53.20
2439;DHT22;14509;47.992;7.848;2023-04-01T07:27:31;14.10;53.20
2439;DHT22;14509;47.992;7.848;2023-04-01T07:29:39;14.70;53.00
2439;DHT22;14509;47.992;7.848;2023-04-01T07:34:17;14.20;52.40
2439;DHT22;14509;47.992;7.848;2023-04-01T07:36:27;14.20;52.50
2439;DHT22;14509;47.992;7.848;2023-04-01T07:38:37;14.10;52.60
2439;DHT22;14509;47.992;7.848;2023-04-01T07:40:48;14.20;52.80
2439;DHT22;14509;47.992;7.848;2023-04-01T07:43:10;14.30;52.60
2439;DHT22;14509;47.992;7.848;2023-04-01T07:45:29;14.30;52.70
2439;DHT22;14509;47.992;7.848;2023-04-01T07:47:50;14.40;52.60
2439;DHT22;14509;47.992;7.848;2023-04-01T07:50:13;14.30;52.40
2439;DHT22;14509;47.992;7.848;2023-04-01T07:52:26;14.40;52.50
2439;DHT22;14509;47.992;7.848;2023-04-01T07:55:06;14.30;52.10
2439;DHT22;14509;47.992;7.848;2023-04-01T07:57:18;14.20;52.70
2439;DHT22;14509;47.992;7.848;2023-04-01T07:59:30;14.10;52.60
2439;DHT22;14509;47.992;7.848;2023-04-01T08:01:49;14.20;52.80
2439;DHT22;14509;47.992;7.848;2023-04-01T08:04:14;14.20;52.50
2439;DHT22;14509;47.992;7.848;2023-04-01T08:06:24;14.30;52.50
2439;DHT22;14509;47.992;7.848;2023-04-01T08:08:39;14.30;52.20
2439;DHT22;14509;47.992;7.848;2023-04-01T08:11:29;14.40;52.30
2439;DHT22;14509;47.992;7.848;2023-04-01T08:14:04;14.30;52.20
2439;DHT22;14509;47.992;7.848;2023-04-01T08:16:37;14.30;52.10
2439;DHT22;14509;47.992;7.848;2023-04-01T08:18:52;14.30;52.10
2439;DHT22;14509;47.992;7.848;2023-04-01T08:20:59;14.40;52.70
2439;DHT22;14509;47.992;7.848;2023-04-01T08:23:07;14.30;52.10
2439;DHT22;14509;47.992;7.848;2023-04-01T08:25:21;14.40;52.10
2439;DHT22;14509;47.992;7.848;2023-04-01T08:27:34;14.40;51.90
2439;DHT22;14509;47.992;7.848;2023-04-01T08:29:40;14.40;51.90
2439;DHT22;14509;47.992;7.848;2023-04-01T08:31:49;14.70;52.00
2439;DHT22;14509;47.992;7.848;2023-04-01T08:33:54;14.40;51.50
2439;DHT22;14509;47.992;7.848;2023-04-01T08:36:01;14.50;51.50
2439;DHT22;14509;47.992;7.848;2023-04-01T08:38:10;14.70;51.40
2439;DHT22;14509;47.992;7.848;2023-04-01T08:40:35;14.70;51.10
2439;DHT22;14509;47.992;7.848;2023-04-01T08:42:59;14.70;51.20
2439;DHT22;14509;47.992;7.848;2023-04-01T08:45:21;14.70;51.20
2439;DHT22;14509;47.992;7.848;2023-04-01T08:47:47;14.70;51.40
2439;DHT22;14509;47.992;7.848;2023-04-01T08:53:03;14.70;51.20
2439;DHT22;14509;47.992;7.848;2023-04-01T08:55:25;14.90;51.00
2439;DHT22;14509;47.992;7.848;2023-04-01T08:57:42;15.10;50.60
2439;DHT22;14509;47.992;7.848;2023-04-01T09:25:43;15.60;49.60
2439;DHT22;14509;47.992;7.848;2023-04-01T09:27:57;15.70;49.00
2439;DHT22;14509;47.992;7.848;2023-04-01T09:30:46;15.40;48.80
2439;DHT22;14509;47.992;7.848;2023-04-01T09:35:47;15.50;48.80
2439;DHT22;14509;47.992;7.848;2023-04-01T09:38:01;15.50;49.50
2439;DHT22;14509;47.992;7.848;2023-04-01T09:40:17;15.50;49.20
2439;DHT22;14509;47.992;7.848;2023-04-01T09:43:01;15.60;48.90
2439;DHT22;14509;47.992;7.848;2023-04-01T09:45:17;15.70;48.90
2439;DHT22;14509;47.992;7.848;2023-04-01T09:47:34;15.70;48.60
2439;DHT22;14509;47.992;7.848;2023-04-01T09:50:00;15.60;48.40
2439;DHT22;14509;47.992;7.848;2023-04-01T09:52:18;15.70;48.80
2439;DHT22;14509;47.992;7.848;2023-04-01T09:54:40;15.90;48.30
2439;DHT22;14509;47.992;7.848;2023-04-01T10:03:15;16.00;47.80
2439;DHT22;14509;47.992;7.848;2023-04-01T10:05:46;16.00;47.80
2439;DHT22;14509;47.992;7.848;2023-04-01T10:08:28;16.00;47.90
2439;DHT22;14509;47.992;7.848;2023-04-01T11:10:25;16.30;47.30
2439;DHT22;14509;47.992;7.848;2023-04-01T11:15:37;16.10;47.10
2439;DHT22;14509;47.992;7.848;2023-04-01T11:20:33;15.90;48.30
2439;DHT22;14509;47.992;7.848;2023-04-01T11:23:01;15.90;47.40
2439;DHT22;14509;47.992;7.848;2023-04-01T11:30:49;16.00;47.80
2439;DHT22;14509;47.992;7.848;2023-04-01T11:33:01;15.90;47.80
2439;DHT22;14509;47.992;7.848;2023-04-01T11:35:26;16.00;47.80
2439;DHT22;14509;47.992;7.848;2023-04-01T11:37:38;15.90;47.90
2439;DHT22;14509;47.992;7.848;2023-04-01T11:40:11;15.70;48.00
2439;DHT22;14509;47.992;7.848;2023-04-01T11:42:44;15.60;48.20
2439;DHT22;14509;47.992;7.848;2023-04-01T11:45:20;15.70;48.20
2439;DHT22;14509;47.992;7.848;2023-04-01T11:47:46;15.90;48.30
2439;DHT22;14509;47.992;7.848;2023-04-01T11:50:00;15.80;47.80
2439;DHT22;14509;47.992;7.848;2023-04-01T11:52:49;16.00;47.80
2439;DHT22;14509;47.992;7.848;2023-04-01T11:55:14;16.00;47.70
2439;DHT22;14509;47.992;7.848;2023-04-01T11:57:40;16.00;47.70
2439;DHT22;14509;47.992;7.848;2023-04-01T11:59:57;16.00;47.80
2439;DHT22;14509;47.992;7.848;2023-04-01T12:02:09;16.10;47.70
2439;DHT22;14509;47.992;7.848;2023-04-01T12:06:50;16.10;47.40
2439;DHT22;14509;47.992;7.848;2023-04-01T12:09:00;16.10;47.20
2439;DHT22;14509;47.992;7.848;2023-04-01T12:11:12;16.10;47.30
2439;DHT22;14509;47.992;7.848;2023-04-01T12:13:27;16.10;47.30
2439;DHT22;14509;47.992;7.848;2023-04-01T12:15:56;16.20;47.00
2439;DHT22;14509;47.992;7.848;2023-04-01T12:18:07;16.30;47.40
2439;DHT22;14509;47.992;7.848;2023-04-01T12:20:25;16.20;46.90
2439;DHT22;14509;47.992;7.848;2023-04-01T12:22:41;16.30;46.90
2439;DHT22;14509;47.992;7.848;2023-04-01T12:24:46;16.30;46.60
2439;DHT22;14509;47.992;7.848;2023-04-01T12:27:16;16.40;46.40
2439;DHT22;14509;47.992;7.848;2023-04-01T12:29:43;16.40;46.60
2439;DHT22;14509;47.992;7.848;2023-04-01T12:31:54;16.30;46.60
2439;DHT22;14509;47.992;7.848;2023-04-01T12:34:28;16.20;46.80
2439;DHT22;14509;47.992;7.848;2023-04-01T12:36:57;16.10;47.20
2439;DHT22;14509;47.992;7.848;2023-04-01T12:39:17;16.20;47.10
2439;DHT22;14509;47.992;7.848;2023-04-01T12:41:32;16.30;46.80
2439;DHT22;14509;47.992;7.848;2023-04-01T12:44:04;16.80;47.00
2439;DHT22;14509;47.992;7.848;2023-04-01T12:46:16;16.50;46.70
2439;DHT22;14509;47.992;7.848;2023-04-01T12:49:01;16.30;46.70
2439;DHT22;14509;47.992;7.848;2023-04-01T12:51:36;16.30;47.30
2439;DHT22;14509;47.992;7.848;2023-04-01T12:54:02;16.40;47.40
2439;DHT22;14509;47.992;7.848;2023-04-01T12:56:14;16.40;46.80
2439;DHT22;14509;47.992;7.848;2023-04-01T13:01:13;16.40;47.60
2439;DHT22;14509;47.992;7.848;2023-04-01T13:03:31;16.30;47.60
2439;DHT22;14509;47.992;7.848;2023-04-01T13:06:09;16.50;47.80
2439;DHT22;14509;47.992;7.848;2023-04-01T13:08:30;16.50;47.70
2439;DHT22;14509;47.992;7.848;2023-04-01T13:11:00;16.60;47.80
2439;DHT22;14509;47.992;7.848;2023-04-01T13:13:20;16.70;47.30
2439;DHT22;14509;47.992;7.848;2023-04-01T13:15:28;16.70;47.00
2439;DHT22;14509;47.992;7.848;2023-04-01T13:17:36;16.70;47.00
2439;DHT22;14509;47.992;7.848;2023-04-01T13:19:47;16.80;46.90
2439;DHT22;14509;47.992;7.848;2023-04-01T13:21:57;16.90;46.60
2439;DHT22;14509;47.992;7.848;2023-04-01T13:24:09;17.00;46.50
2439;DHT22;14509;47.992;7.848;2023-04-01T13:26:19;17.00;46.20
2439;DHT22;14509;47.992;7.848;2023-04-01T13:28:26;17.00;46.10
2439;DHT22;14509;47.992;7.848;2023-04-01T13:30:35;16.90;45.80
2439;DHT22;14509;47.992;7.848;2023-04-01T13:32:45;17.00;46.00
2439;DHT22;14509;47.992;7.848;2023-04-01T13:34:59;17.00;45.70
2439;DHT22;14509;47.992;7.848;2023-04-01T13:37:17;16.80;46.20
2439;DHT22;14509;47.992;7.848;2023-04-01T13:39:30;16.80;46.00
2439;DHT22;14509;47.992;7.848;2023-04-01T13:44:11;17.00;45.60
2439;DHT22;14509;47.992;7.848;2023-04-01T13:46:41;17.20;45.30
2439;DHT22;14509;47.992;7.848;2023-04-01T13:49:19;17.30;45.20
2439;DHT22;14509;47.992;7.848;2023-04-01T13:57:17;17.80;44.40
2439;DHT22;14509;47.992;7.848;2023-04-01T14:00:22;17.80;44.00
2439;DHT22;14509;47.992;7.848;2023-04-01T14:06:34;18.40;43.20
2439;DHT22;14509;47.992;7.848;2023-04-01T14:11:45;18.50;42.30
2439;DHT22;14509;47.992;7.848;2023-04-01T14:14:01;18.80;42.20
2439;DHT22;14509;47.992;7.848;2023-04-01T14:16:45;19.00;41.40
2439;DHT22;14509;47.992;7.848;2023-04-01T14:19:08;19.20;40.30
2439;DHT22;14509;47.992;7.848;2023-04-01T14:21:25;19.30;40.30
2439;DHT22;14509;47.992;7.848;2023-04-01T14:27:29;19.50;39.60
2439;DHT22;14509;47.992;7.848;2023-04-01T14:30:40;19.50;40.30
2439;DHT22;14509;47.992;7.848;2023-04-01T14:32:57;18.90;43.80
2439;DHT22;14509;47.992;7.848;2023-04-01T14:35:23;18.50;46.80
2439;DHT22;14509;47.992;7.848;2023-04-01T14:37:48;17.70;50.30
2439;DHT22;14509;47.992;7.848;2023-04-01T14:40:16;17.10;51.50
2439;DHT22;14509;47.992;7.848;2023-04-01T14:45:12;15.50;53.50
2439;DHT22;14509;47.992;7.848;2023-04-01T14:47:33;15.60;55.10
2439;DHT22;14509;47.992;7.848;2023-04-01T14:49:40;15.70;55.30
2439;DHT22;14509;47.992;7.848;2023-04-01T14:51:43;15.80;54.50
2439;DHT22;14509;47.992;7.848;2023-04-01T14:53:56;15.70;54.40
2439;DHT22;14509;47.992;7.848;2023-04-01T14:56:02;15.80;54.70
2439;DHT22;14509;47.992;7.848;2023-04-01T14:58:12;16.00;54.80
2439;DHT22;14509;47.992;7.848;2023-04-01T15:00:17;16.20;53.50
2439;DHT22;14509;47.992;7.848;2023-04-01T15:02:45;16.80;52.60
2439;DHT22;14509;47.992;7.848;2023-04-01T15:04:58;17.20;51.60
2439;DHT22;14509;47.992;7.848;2023-04-01T15:07:18;17.60;49.90
2439;DHT22;14509;47.992;7.848;2023-04-01T15:09:31;18.00;49.30
2439;DHT22;14509;47.992;7.848;2023-04-01T15:11:47;18.30;48.00
2439;DHT22;14509;47.992;7.848;2023-04-01T15:14:13;19.10;47.60
2439;DHT22;14509;47.992;7.848;2023-04-01T15:16:23;19.90;45.40
2439;DHT22;14509;47.992;7.848;2023-04-01T15:18:35;20.40;41.90
2439;DHT22;14509;47.992;7.848;2023-04-01T15:21:01;20.80;41.50
2439;DHT22;14509;47.992;7.848;2023-04-01T15:23:56;21.20;41.30
2439;DHT22;14509;47.992;7.848;2023-04-01T15:26:20;21.20;39.10
2439;DHT22;14509;47.992;7.848;2023-04-01T15:28:31;21.20;39.00
2439;DHT22;14509;47.992;7.848;2023-04-01T15:30:37;21.30;37.60
2439;DHT22;14509;47.992;7.848;2023-04-01T15:32:54;21.30;37.50
2439;DHT22;14509;47.992;7.848;2023-04-01T15:35:10;21.10;37.30
2439;DHT22;14509;47.992;7.848;2023-04-01T15:37:18;20.60;38.50
2439;DHT22;14509;47.992;7.848;2023-04-01T15:39:34;20.10;38.00
2439;DHT22;14509;47.992;7.848;2023-04-01T15:41:46;19.60;38.90
2439;DHT22;14509;47.992;7.848;2023-04-01T15:43:51;19.20;39.90
2439;DHT22;14509;47.992;7.848;2023-04-01T15:45:58;18.90;40.60
2439;DHT22;14509;47.992;7.848;2023-04-01T15:48:26;18.60;41.00
2439;DHT22;14509;47.992;7.848;2023-04-01T15:50:51;18.30;42.10
2439;DHT22;14509;47.992;7.848;2023-04-01T15:53:04;18.00;43.80
2439;DHT22;14509;47.992;7.848;2023-04-01T15:55:18;17.70;44.60
2439;DHT22;14509;47.992;7.848;2023-04-01T15:57:28;17.50;45.10
2439;DHT22;14509;47.992;7.848;2023-04-01T15:59:51;17.30;45.40
2439;DHT22;14509;47.992;7.848;2023-04-01T16:01:59;17.10;45.90
2439;DHT22;14509;47.992;7.848;2023-04-01T16:04:17;17.00;45.20
2439;DHT22;14509;47.992;7.848;2023-04-01T16:06:57;16.80;45.50
2439;DHT22;14509;47.992;7.848;2023-04-01T16:09:28;16.80;46.40
2439;DHT22;14509;47.992;7.848;2023-04-01T16:11:41;17.00;45.70
2439;DHT22;14509;47.992;7.848;2023-04-01T16:13:54;17.10;45.50
2439;DHT22;14509;47.992;7.848;2023-04-01T16:16:08;17.20;45.20
2439;DHT22;14509;47.992;7.848;2023-04-01T16:20:51;17.50;44.40
2439;DHT22;14509;47.992;7.848;2023-04-01T16:23:00;17.80;44.30
2439;DHT22;14509;47.992;7.848;2023-04-01T16:25:19;17.90;43.30
2439;DHT22;14509;47.992;7.848;2023-04-01T16:27:27;17.90;43.10
2439;DHT22;14509;47.992;7.848;2023-04-01T16:29:38;17.90;43.20
2439;DHT22;14509;47.992;7.848;2023-04-01T16:31:46;17.70;43.40
2439;DHT22;14509;47.992;7.848;2023-04-01T16:33:55;17.60;43.30
2439;DHT22;14509;47.992;7.848;2023-04-01T16:36:00;17.60;43.50
2439;DHT22;14509;47.992;7.848;2023-04-01T16:38:15;17.60;43.90
2439;DHT22;14509;47.992;7.848;2023-04-01T16:40:25;17.50;44.40
2439;DHT22;14509;47.992;7.848;2023-04-01T16:42:42;17.50;44.10
2439;DHT22;14509;47.992;7.848;2023-04-01T16:44:50;17.60;44.60
2439;DHT22;14509;47.992;7.848;2023-04-01T16:46:56;17.70;45.10
2439;DHT22;14509;47.992;7.848;2023-04-01T16:49:13;17.70;44.60
2439;DHT22;14509;47.992;7.848;2023-04-01T16:51:18;17.70;44.60
2439;DHT22;14509;47.992;7.848;2023-04-01T16:53:30;17.60;44.60
2439;DHT22;14509;47.992;7.848;2023-04-01T16:55:44;17.60;44.50
2439;DHT22;14509;47.992;7.848;2023-04-01T16:57:51;17.60;44.50
2439;DHT22;14509;47.992;7.848;2023-04-01T16:59:56;17.60;44.70
2439;DHT22;14509;47.992;7.848;2023-04-01T17:02:04;17.50;44.90
2439;DHT22;14509;47.992;7.848;2023-04-01T17:04:18;17.40;45.00
2439;DHT22;14509;47.992;7.848;2023-04-01T17:06:28;17.40;45.00
2439;DHT22;14509;47.992;7.848;2023-04-01T17:09:00;17.40;45.20
2439;DHT22;14509;47.992;7.848;2023-04-01T17:11:09;17.30;45.00
2439;DHT22;14509;47.992;7.848;2023-04-01T17:13:32;17.30;45.50
2439;DHT22;14509;47.992;7.848;2023-04-01T17:15:42;17.60;45.90
2439;DHT22;14509;47.992;7.848;2023-04-01T17:17:53;18.10;45.00
2439;DHT22;14509;47.992;7.848;2023-04-01T17:20:14;18.60;44.20
2439;DHT22;14509;47.992;7.848;2023-04-01T17:22:31;18.90;42.60
2439;DHT22;14509;47.992;7.848;2023-04-01T17:24:49;18.90;42.40
2439;DHT22;14509;47.992;7.848;2023-04-01T17:27:01;18.90;42.80
2439;DHT22;14509;47.992;7.848;2023-04-01T17:29:12;19.10;43.10
2439;DHT22;14509;47.992;7.848;2023-04-01T17:31:31;19.40;42.70
2439;DHT22;14509;47.992;7.848;2023-04-01T17:33:56;19.40;42.10
2439;DHT22;14509;47.992;7.848;2023-04-01T17:36:02;19.70;41.20